Time;durP1;ratioP1;P1;durP2;ratioP2;P2;SDS_P1;SDS_P2;PMS_P1;PMS_P2;Temp;Humidity;BMP_temperature;BMP_pressure;BME280_temperature;BME280_humidity;BME280_pressure;Samples;Min_cycle;Max_cycle;Signal;HPM_P1;HPM_P2
2021/06/28 00:01:27;;;;;;;6.80;5.63;;;;;;;21.30;59.90;98702.28;5091264;28;20054;-90
2021/06/28 00:03:53;;;;;;;10.15;5.57;;;;;;;21.23;59.71;98692.00;5093192;28;20043;-91
2021/06/28 00:06:19;;;;;;;7.57;5.70;;;;;;;21.20;60.18;98705.75;5093842;28;20063;-90
2021/06/28 00:08:47;;;;;;;9.90;5.75;;;;;;;21.23;60.64;98713.63;5093329;28;20036;-92
2021/06/28 00:11:13;;;;;;;8.18;5.50;;;;;;;21.19;59.95;98709.41;5093147;28;20086;-89
2021/06/28 00:13:41;;;;;;;7.70;5.72;;;;;;;21.17;60.04;98714.09;5092909;28;20434;-90
2021/06/28 00:16:10;;;;;;;10.47;6.50;;;;;;;21.19;59.84;98713.00;5090762;28;20047;-89
2021/06/28 00:18:39;;;;;;;8.90;6.07;;;;;;;21.18;60.04;98713.97;5092311;28;20085;-92
2021/06/28 00:21:05;;;;;;;9.20;5.82;;;;;;;21.10;61.37;98703.72;5093032;28;20512;-90
2021/06/28 00:23:31;;;;;;;11.25;6.20;;;;;;;21.04;61.33;98709.56;5093587;28;20119;-90
2021/06/28 00:25:59;;;;;;;8.32;5.72;;;;;;;20.92;61.70;98708.56;5092924;28;20151;-92
2021/06/28 00:28:25;;;;;;;8.10;5.70;;;;;;;20.86;62.05;98713.53;5093053;28;20043;-90
2021/06/28 00:30:52;;;;;;;10.23;6.20;;;;;;;20.81;61.53;98699.50;5089488;28;20490;-89
2021/06/28 00:33:19;;;;;;;8.38;6.05;;;;;;;20.99;61.51;98710.84;5092875;28;20123;-89
2021/06/28 00:35:47;;;;;;;8.40;5.60;;;;;;;20.88;61.48;98689.97;5087698;28;20048;-89
2021/06/28 00:38:14;;;;;;;7.57;5.88;;;;;;;20.90;61.83;98698.84;5092592;28;20052;-89
2021/06/28 00:40:41;;;;;;;7.00;5.72;;;;;;;20.87;61.67;98683.72;5092980;28;20052;-88
2021/06/28 00:43:08;;;;;;;7.53;5.53;;;;;;;20.88;61.51;98684.56;5092641;28;20451;-91
2021/06/28 00:45:36;;;;;;;7.70;6.00;;;;;;;20.99;61.79;98702.72;5090027;28;20412;-89
2021/06/28 00:48:05;;;;;;;11.30;5.97;;;;;;;20.77;62.16;98677.22;5092323;28;20062;-90
2021/06/28 00:50:33;;;;;;;8.20;6.32;;;;;;;20.82;61.72;98679.59;5085700;28;20044;-90
2021/06/28 00:53:03;;;;;;;9.15;6.00;;;;;;;20.87;62.02;98701.78;5092128;28;20040;-89
2021/06/28 00:55:29;;;;;;;8.80;6.20;;;;;;;20.83;62.77;98697.56;5092711;28;20048;-91
2021/06/28 00:57:56;;;;;;;12.00;6.22;;;;;;;20.66;63.00;98691.47;5092493;28;20115;-88
2021/06/28 01:00:24;;;;;;;7.95;6.38;;;;;;;20.64;62.72;98687.16;5089952;28;20397;-88
2021/06/28 01:02:51;;;;;;;8.38;6.30;;;;;;;20.70;62.89;98698.41;5092144;28;20722;-90
2021/06/28 01:05:20;;;;;;;9.25;6.60;;;;;;;20.59;62.68;98683.94;5092509;28;20044;-90
2021/06/28 01:07:47;;;;;;;9.38;6.35;;;;;;;20.64;62.80;98696.13;5095122;28;20040;-90
2021/06/28 01:10:14;;;;;;;13.18;6.72;;;;;;;20.60;62.91;98691.03;5092395;28;20040;-90
2021/06/28 01:12:40;;;;;;;9.88;6.40;;;;;;;20.59;63.21;98701.00;5091953;28;20449;-91
2021/06/28 01:15:07;;;;;;;8.75;6.60;;;;;;;20.59;62.86;98705.53;5089809;28;20056;-88
2021/06/28 01:17:35;;;;;;;10.52;6.30;;;;;;;20.57;62.72;98702.03;5091886;28;20109;-89
2021/06/28 01:20:07;;;;;;;10.55;6.40;;;;;;;20.47;62.98;98699.09;5092244;28;20134;-89
2021/06/28 01:22:34;;;;;;;8.20;6.43;;;;;;;20.42;63.92;98695.84;5092350;28;20042;-88
2021/06/28 01:25:03;;;;;;;10.07;6.20;;;;;;;20.10;64.04;98674.59;5092341;28;20405;-91
2021/06/28 01:27:30;;;;;;;9.00;6.25;;;;;;;20.30;63.48;98692.16;5092463;28;20554;-89
2021/06/28 01:29:57;;;;;;;8.40;6.15;;;;;;;20.27;63.49;98695.91;5092050;28;20036;-89
2021/06/28 01:32:24;;;;;;;10.55;6.88;;;;;;;20.20;64.42;98686.50;5090469;28;20127;-89
2021/06/28 01:34:50;;;;;;;7.75;5.82;;;;;;;20.18;64.32;98685.75;5092758;28;20040;-89
2021/06/28 01:37:21;;;;;;;6.85;6.15;;;;;;;20.18;64.14;98696.56;5092973;28;20047;-87
2021/06/28 01:39:48;;;;;;;6.68;5.63;;;;;;;20.15;64.11;98690.53;5092318;28;20040;-89
2021/06/28 01:42:15;;;;;;;7.18;5.88;;;;;;;20.12;64.21;98694.25;5092531;28;20568;-88
2021/06/28 01:44:41;;;;;;;8.45;6.90;;;;;;;20.24;62.17;98684.47;5094928;28;20044;-89
2021/06/28 01:47:07;;;;;;;7.18;5.80;;;;;;;20.42;61.18;98685.91;5091704;28;20044;-90
2021/06/28 01:49:33;;;;;;;8.05;5.55;;;;;;;20.65;60.45;98689.75;5092433;28;20457;-89
2021/06/28 01:51:59;;;;;;;7.28;5.53;;;;;;;20.77;59.95;98676.34;5092403;28;20036;-90
2021/06/28 01:54:27;;;;;;;7.90;5.38;;;;;;;20.88;59.55;98679.16;5092771;28;20040;-90
2021/06/28 01:56:53;;;;;;;8.90;4.93;;;;;;;20.87;59.30;98661.22;5089385;28;20120;-88
2021/06/28 01:59:23;;;;;;;7.65;6.15;;;;;;;21.05;59.32;98680.66;5092384;28;20040;-91
2021/06/28 02:01:49;;;;;;;7.40;5.53;;;;;;;20.99;59.23;98665.78;5089544;28;20036;-90
2021/06/28 02:04:17;;;;;;;8.10;5.78;;;;;;;21.07;58.78;98686.84;5095226;28;20142;-90
2021/06/28 02:06:42;;;;;;;6.22;4.82;;;;;;;20.95;59.28;98664.25;5095433;28;20077;-90
2021/06/28 02:09:08;;;;;;;8.45;5.28;;;;;;;21.02;58.28;98670.94;5096172;28;20028;-90
2021/06/28 02:11:34;;;;;;;7.93;5.18;;;;;;;21.09;58.52;98674.94;5095915;28;20052;-90
2021/06/28 02:14:00;;;;;;;7.38;5.07;;;;;;;21.13;58.44;98673.75;5096141;28;20032;-90
2021/06/28 02:16:27;;;;;;;6.72;4.75;;;;;;;21.12;58.54;98681.94;5093773;28;20040;-89
2021/06/28 02:18:53;;;;;;;7.68;5.25;;;;;;;20.95;59.25;98675.06;5095866;28;20039;-91
2021/06/28 02:21:19;;;;;;;8.65;5.90;;;;;;;20.80;59.49;98654.53;5095939;28;20039;-91
2021/06/28 02:23:44;;;;;;;8.88;5.72;;;;;;;20.74;60.08;98671.19;5095964;28;20060;-90
2021/06/28 02:26:12;;;;;;;7.90;6.18;;;;;;;20.63;60.61;98669.22;5095703;28;20123;-88
2021/06/28 02:28:40;;;;;;;9.93;5.88;;;;;;;20.49;61.25;98672.84;5094022;28;20567;-89
2021/06/28 02:31:08;;;;;;;7.60;5.72;;;;;;;20.20;62.36;98653.25;5093307;28;20044;-89
2021/06/28 02:33:36;;;;;;;9.45;6.30;;;;;;;20.21;62.74;98680.16;5095903;28;20075;-88
2021/06/28 02:36:04;;;;;;;8.02;5.93;;;;;;;20.17;63.04;98677.75;5094576;28;20036;-89
2021/06/28 02:38:30;;;;;;;10.02;5.95;;;;;;;19.94;63.55;98660.44;5095853;28;20055;-88
2021/06/28 02:40:56;;;;;;;9.18;6.20;;;;;;;19.87;63.70;98668.94;5095439;28;20131;-90
2021/06/28 02:43:22;;;;;;;7.40;5.53;;;;;;;19.73;64.16;98657.31;5095211;28;20516;-90
2021/06/28 02:45:49;;;;;;;7.80;6.05;;;;;;;19.77;64.39;98689.38;5092876;28;20043;-89
2021/06/28 02:48:14;;;;;;;8.20;6.05;;;;;;;19.68;64.48;98682.72;5095103;28;20059;-90
2021/06/28 02:50:42;;;;;;;10.82;6.28;;;;;;;19.42;65.17;98660.16;5095154;28;20071;-91
2021/06/28 02:53:08;;;;;;;7.32;5.82;;;;;;;19.42;65.41;98683.56;5095011;28;20032;-88
2021/06/28 02:55:34;;;;;;;7.40;5.82;;;;;;;19.27;65.76;98683.59;5095376;28;20555;-91
2021/06/28 02:58:01;;;;;;;8.82;5.45;;;;;;;19.23;65.80;98676.66;5095170;28;20036;-90
2021/06/28 03:00:28;;;;;;;7.50;5.80;;;;;;;19.29;65.34;98683.50;5092649;28;20032;-89
2021/06/28 03:02:58;;;;;;;7.97;5.53;;;;;;;19.24;65.61;98661.38;5094439;28;20089;-89
2021/06/28 03:05:24;;;;;;;8.65;5.80;;;;;;;19.22;65.86;98657.91;5095063;28;20047;-91
2021/06/28 03:07:51;;;;;;;7.72;6.05;;;;;;;19.30;65.68;98677.16;5094763;28;20036;-89
2021/06/28 03:10:17;;;;;;;7.20;5.88;;;;;;;19.29;65.88;98678.09;5094704;28;20090;-90
2021/06/28 03:12:43;;;;;;;7.55;6.05;;;;;;;19.31;66.37;98689.66;5093560;28;20036;-90
2021/06/28 03:15:14;;;;;;;10.32;6.50;;;;;;;19.33;66.49;98682.34;5091817;28;20032;-90
2021/06/28 03:17:40;;;;;;;7.32;6.60;;;;;;;19.27;66.80;98680.91;5094418;28;20090;-89
2021/06/28 03:20:09;;;;;;;11.60;6.05;;;;;;;19.12;66.44;98662.16;5094700;28;20119;-89
2021/06/28 03:22:35;;;;;;;;;;;;;;;19.21;66.25;98677.72;5093982;28;20032;-88
2021/06/28 03:25:03;;;;;;;10.30;6.40;;;;;;;19.08;66.39;98664.16;5094690;28;19946;-92
2021/06/28 03:27:29;;;;;;;12.15;7.10;;;;;;;19.06;66.75;98666.09;5095370;28;20385;-89
2021/06/28 03:29:54;;;;;;;8.57;6.40;;;;;;;19.08;66.52;98661.47;5091989;28;20038;-90
2021/06/28 03:32:20;;;;;;;10.45;6.20;;;;;;;19.11;66.73;98669.38;5093938;28;20085;-89
2021/06/28 03:34:46;;;;;;;10.23;6.40;;;;;;;19.18;66.68;98677.94;5094403;28;20059;-90
2021/06/28 03:37:12;;;;;;;11.57;6.28;;;;;;;19.15;66.56;98670.03;5094314;28;20429;-90
2021/06/28 03:39:38;;;;;;;11.38;6.97;;;;;;;18.99;66.92;98664.75;5093939;28;20046;-88
2021/06/28 03:42:06;;;;;;;12.48;6.68;;;;;;;18.99;66.98;98662.06;5094147;28;20114;-89
2021/06/28 03:44:31;;;;;;;12.25;6.32;;;;;;;19.00;67.56;98672.75;5094163;28;20043;-88
2021/06/28 03:46:57;;;;;;;9.20;6.68;;;;;;;18.98;67.30;98682.75;5092313;28;20036;-90
2021/06/28 03:49:23;;;;;;;11.93;6.40;;;;;;;18.93;68.10;98674.06;5094261;28;20417;-88
2021/06/28 03:51:49;;;;;;;9.13;6.82;;;;;;;18.79;67.72;98655.22;5093963;28;20032;-89
2021/06/28 03:54:15;;;;;;;7.60;6.53;;;;;;;18.87;67.95;98677.19;5094114;28;20040;-88
2021/06/28 03:56:40;;;;;;;10.57;6.60;;;;;;;18.88;68.04;98670.81;5089644;28;20036;-89
2021/06/28 03:59:08;;;;;;;8.98;6.55;;;;;;;18.97;67.72;98667.53;5093798;28;20028;-89
2021/06/28 04:01:35;;;;;;;11.18;7.00;;;;;;;18.99;67.28;98662.91;5091194;28;20036;-88
2021/06/28 04:04:01;;;;;;;15.13;6.45;;;;;;;18.95;67.37;98655.13;5094156;28;20568;-90
2021/06/28 04:06:27;;;;;;;9.43;6.75;;;;;;;19.00;67.08;98656.59;5094184;28;20119;-92
2021/06/28 04:08:52;;;;;;;8.45;6.32;;;;;;;18.97;67.23;98648.66;5093743;28;20043;-89
2021/06/28 04:11:18;;;;;;;7.90;6.53;;;;;;;19.03;67.08;98655.50;5093816;28;20509;-89
2021/06/28 04:13:44;;;;;;;8.27;5.90;;;;;;;19.26;66.74;98676.47;5093622;28;20047;-90
2021/06/28 04:16:11;;;;;;;13.77;7.68;;;;;;;19.23;66.27;98657.78;5086115;28;20090;-91
2021/06/28 04:18:37;;;;;;;9.85;6.63;;;;;;;19.02;67.19;98653.81;5073774;28;20037;-88
2021/06/28 04:21:04;;;;;;;9.82;7.05;;;;;;;18.91;67.36;98656.28;5073531;28;20234;-89
2021/06/28 04:23:30;;;;;;;9.07;6.57;;;;;;;19.05;66.78;98654.44;5073280;28;20045;-89
2021/06/28 04:25:55;;;;;;;9.30;6.57;;;;;;;19.22;66.51;98669.56;5072921;28;20044;-90
2021/06/28 04:28:21;;;;;;;7.63;6.40;;;;;;;19.32;66.15;98680.59;5073143;28;20041;-90
2021/06/28 04:30:47;;;;;;;8.43;6.45;;;;;;;19.36;66.14;98673.19;5070828;28;20460;-89
2021/06/28 04:33:16;;;;;;;8.88;7.35;;;;;;;19.33;67.05;98659.91;5072216;28;20071;-88
2021/06/28 04:35:41;;;;;;;9.23;6.70;;;;;;;19.46;67.12;98672.50;5071411;28;20502;-89
2021/06/28 04:38:07;;;;;;;8.27;6.38;;;;;;;19.63;66.08;98673.22;5072908;28;20086;-90
2021/06/28 04:40:34;;;;;;;8.80;6.35;;;;;;;19.62;65.40;98658.84;5072934;28;20044;-89
2021/06/28 04:43:00;;;;;;;8.77;6.70;;;;;;;19.66;64.90;98655.00;5073080;28;20039;-89
2021/06/28 04:45:27;;;;;;;12.25;6.30;;;;;;;19.69;65.42;98681.81;5070698;28;20111;-89
2021/06/28 04:47:53;;;;;;;8.15;6.82;;;;;;;19.85;64.72;98684.34;5072203;28;20531;-90
2021/06/28 04:50:23;;;;;;;9.50;6.15;;;;;;;19.95;64.40;98691.84;5072565;28;20064;-90
2021/06/28 04:52:50;;;;;;;6.88;6.15;;;;;;;20.11;64.13;98697.94;5071711;28;20047;-88
2021/06/28 04:55:15;;;;;;;9.88;6.13;;;;;;;20.49;62.70;98679.13;5072961;28;20115;-90
2021/06/28 04:57:43;;;;;;;7.45;6.30;;;;;;;20.77;61.88;98673.66;5072515;28;20132;-89
2021/06/28 05:00:11;;;;;;;8.93;6.13;;;;;;;21.28;60.20;98685.28;5070216;28;20060;-90
2021/06/28 05:02:37;;;;;;;10.47;6.47;;;;;;;21.64;58.20;98682.72;5072908;28;20040;-90
2021/06/28 05:05:03;;;;;;;9.30;6.07;;;;;;;21.65;57.72;98679.06;5072490;28;20371;-89
2021/06/28 05:07:31;;;;;;;12.32;6.70;;;;;;;21.20;59.63;98668.75;5073538;28;20029;-89
2021/06/28 05:09:57;;;;;;;8.90;5.83;;;;;;;21.45;59.25;98664.31;5072628;28;20041;-89
2021/06/28 05:12:23;;;;;;;7.85;5.93;;;;;;;21.68;58.31;98690.50;5072599;28;20055;-89
2021/06/28 05:14:49;;;;;;;11.02;5.70;;;;;;;21.88;57.82;98675.50;5072132;28;20441;-90
2021/06/28 05:17:15;;;;;;;10.05;5.93;;;;;;;22.06;57.23;98688.66;5085157;28;20067;-90
2021/06/28 05:19:41;;;;;;;9.13;5.85;;;;;;;22.23;57.03;98690.97;5091198;28;20059;-92
2021/06/28 05:22:07;;;;;;;7.40;5.53;;;;;;;22.45;56.15;98671.22;5092344;28;20028;-90
2021/06/28 05:24:34;;;;;;;7.13;5.70;;;;;;;22.72;55.50;98670.03;5092696;28;20039;-89
2021/06/28 05:27:01;;;;;;;9.80;5.50;;;;;;;22.74;54.70;98659.94;5092332;28;20382;-90
2021/06/28 05:29:27;;;;;;;7.38;5.18;;;;;;;23.06;54.48;98675.53;5093660;28;20454;-91
2021/06/28 05:31:53;;;;;;;6.95;5.38;;;;;;;23.14;54.18;98665.78;5091302;28;20405;-91
2021/06/28 05:34:19;;;;;;;7.43;5.50;;;;;;;23.03;54.41;98667.63;5094041;28;20032;-89
2021/06/28 05:36:45;;;;;;;8.55;5.88;;;;;;;22.67;55.39;98667.69;5092599;28;20040;-90
2021/06/28 05:39:11;;;;;;;9.77;5.95;;;;;;;22.34;56.20;98658.50;5095890;28;20032;-92
2021/06/28 05:41:38;;;;;;;8.02;6.18;;;;;;;22.09;57.24;98664.88;5096417;28;20058;-90
2021/06/28 05:44:04;;;;;;;12.10;6.38;;;;;;;22.61;56.24;98679.00;5097818;28;20505;-89
2021/06/28 05:46:30;;;;;;;8.30;5.72;;;;;;;22.75;55.52;98676.09;5095261;28;20102;-91
2021/06/28 05:48:56;;;;;;;8.68;5.75;;;;;;;23.02;54.72;98688.47;5097833;28;20436;-90
2021/06/28 05:51:22;;;;;;;10.30;6.05;;;;;;;22.26;56.68;98669.06;5096657;28;20069;-92
2021/06/28 05:53:49;;;;;;;13.18;6.07;;;;;;;21.84;58.17;98656.88;5096725;28;20067;-91
2021/06/28 05:56:15;;;;;;;8.52;6.10;;;;;;;21.80;58.34;98667.09;5096328;28;20428;-90
2021/06/28 05:58:44;;;;;;;9.15;6.40;;;;;;;21.75;58.36;98647.63;5096888;28;20090;-91
2021/06/28 06:01:10;;;;;;;9.50;6.53;;;;;;;21.91;57.99;98650.91;5096041;28;20087;-91
2021/06/28 06:03:36;;;;;;;11.25;6.03;;;;;;;21.95;57.97;98656.97;5098144;28;20060;-90
2021/06/28 06:06:03;;;;;;;12.93;6.30;;;;;;;22.43;56.67;98669.59;5098409;28;20565;-91
2021/06/28 06:08:28;;;;;;;7.93;5.95;;;;;;;22.55;56.63;98666.81;5097987;28;20362;-91
2021/06/28 06:10:57;;;;;;;8.23;5.68;;;;;;;22.53;56.51;98686.84;5097776;28;20055;-91
2021/06/28 06:13:25;;;;;;;9.18;5.65;;;;;;;23.13;55.05;98683.03;5095783;28;20052;-90
2021/06/28 06:15:53;;;;;;;;;;;;;;;23.32;54.85;98689.72;5093849;28;20048;-91
2021/06/28 06:18:19;;;;;;;10.07;5.68;;;;;;;23.47;54.48;98687.59;5094109;28;19920;-90
2021/06/28 06:20:45;;;;;;;10.50;6.28;;;;;;;23.33;53.71;98678.75;5095761;28;20046;-91
2021/06/28 06:23:12;;;;;;;12.68;5.85;;;;;;;23.49;53.86;98686.50;5094380;28;20044;-91
2021/06/28 06:25:40;;;;;;;9.30;5.85;;;;;;;23.58;54.24;98680.28;5095377;28;20151;-91
2021/06/28 06:28:06;;;;;;;10.50;6.43;;;;;;;23.56;53.84;98679.56;5095533;28;20032;-89
2021/06/28 06:30:32;;;;;;;7.20;5.63;;;;;;;23.91;53.24;98666.81;5092356;28;20102;-89
2021/06/28 06:33:00;;;;;;;9.05;5.50;;;;;;;24.62;51.41;98661.69;5095656;28;20089;-92
2021/06/28 06:35:26;;;;;;;15.60;5.97;;;;;;;24.40;51.81;98674.38;5096558;28;20501;-91
2021/06/28 06:37:54;;;;;;;8.18;5.82;;;;;;;24.80;50.89;98665.50;5096513;28;20038;-91
2021/06/28 06:40:20;;;;;;;11.32;5.97;;;;;;;25.12;49.31;98652.78;5096033;28;20036;-92
2021/06/28 06:42:46;;;;;;;13.65;6.55;;;;;;;25.48;48.75;98662.28;5088561;28;20036;-92
2021/06/28 06:45:13;;;;;;;8.02;5.70;;;;;;;25.91;47.49;98673.84;5093262;28;20038;-92
2021/06/28 06:47:39;;;;;;;12.40;5.78;;;;;;;26.31;46.70;98679.19;5096524;28;20082;-90
2021/06/28 06:50:07;;;;;;;7.35;5.70;;;;;;;26.69;45.73;98685.63;5095608;28;20044;-90
2021/06/28 06:52:33;;;;;;;8.57;5.85;;;;;;;26.84;45.63;98675.13;5095703;28;20066;-92
2021/06/28 06:54:59;;;;;;;8.52;6.00;;;;;;;26.90;45.21;98685.47;5093138;28;20040;-91
2021/06/28 06:57:25;;;;;;;8.07;5.85;;;;;;;27.05;44.35;98667.59;5094850;28;20573;-92
2021/06/28 06:59:50;;;;;;;8.65;5.90;;;;;;;27.31;44.03;98674.31;5093028;28;20094;-92
2021/06/28 07:02:16;;;;;;;10.05;5.95;;;;;;;27.33;44.14;98662.22;5095722;28;20067;-90
2021/06/28 07:04:42;;;;;;;10.38;5.53;;;;;;;27.51;43.66;98670.47;5095990;28;20036;-91
2021/06/28 07:07:09;;;;;;;13.27;5.38;;;;;;;27.65;43.17;98656.31;5092659;28;20089;-92
2021/06/28 07:09:35;;;;;;;8.35;5.95;;;;;;;27.75;43.06;98666.31;5094913;28;20036;-90
2021/06/28 07:12:01;;;;;;;10.55;6.15;;;;;;;27.96;42.73;98668.81;5096952;28;20551;-91
2021/06/28 07:14:27;;;;;;;11.30;6.20;;;;;;;27.94;42.73;98658.00;5096337;28;20036;-91
2021/06/28 07:16:52;;;;;;;8.80;5.43;;;;;;;28.00;42.59;98662.00;5092665;28;20551;-92
2021/06/28 07:19:18;;;;;;;12.60;5.93;;;;;;;28.14;42.03;98666.06;5095833;28;20096;-88
2021/06/28 07:21:47;;;;;;;15.15;6.20;;;;;;;28.23;42.11;98673.31;5097397;28;20040;-91
2021/06/28 07:24:15;;;;;;;7.85;5.63;;;;;;;28.22;41.41;98647.88;5094146;28;20122;-88
2021/06/28 07:26:41;;;;;;;12.15;6.00;;;;;;;28.45;41.81;98659.19;5095362;28;20040;-90
2021/06/28 07:29:07;;;;;;;9.00;6.00;;;;;;;28.56;41.49;98669.06;5093493;28;20044;-91
2021/06/28 07:31:33;;;;;;;12.55;5.80;;;;;;;28.60;41.57;98675.03;5093010;28;20048;-88
2021/06/28 07:33:59;;;;;;;9.90;6.20;;;;;;;28.79;40.72;98687.69;5095683;28;20147;-87
2021/06/28 07:36:25;;;;;;;7.75;6.45;;;;;;;29.01;40.54;98680.81;5093155;28;20048;-89
2021/06/28 07:38:51;;;;;;;9.38;5.85;;;;;;;29.00;40.45;98670.91;5094188;28;20032;-91
2021/06/28 07:41:18;;;;;;;9.98;5.90;;;;;;;29.16;39.72;98668.28;5094133;28;20050;-89
2021/06/28 07:43:44;;;;;;;8.87;5.80;;;;;;;29.51;38.80;98682.84;5093824;28;20102;-87
2021/06/28 07:46:10;;;;;;;9.55;5.68;;;;;;;29.73;38.68;98686.03;5091604;28;20039;-91
2021/06/28 07:48:36;;;;;;;9.23;6.20;;;;;;;29.71;38.06;98688.94;5093332;28;20142;-89
2021/06/28 07:51:02;;;;;;;8.65;6.10;;;;;;;29.11;39.46;98683.50;5093144;28;20067;-89
2021/06/28 07:53:28;;;;;;;9.52;5.72;;;;;;;29.13;39.97;98684.19;5092846;28;20470;-91
2021/06/28 07:55:54;;;;;;;7.65;5.57;;;;;;;29.03;40.24;98681.53;5093108;28;20123;-88
2021/06/28 07:58:22;;;;;;;9.80;6.15;;;;;;;29.14;39.61;98691.38;5093664;28;20040;-89
2021/06/28 08:00:47;;;;;;;11.50;5.80;;;;;;;29.00;40.61;98681.84;5088226;28;20032;-90
2021/06/28 08:03:13;;;;;;;9.48;5.95;;;;;;;29.38;39.31;98660.50;5092772;28;20043;-88
2021/06/28 08:05:41;;;;;;;7.82;6.10;;;;;;;29.76;38.50;98674.75;5092152;28;20127;-89
2021/06/28 08:08:07;;;;;;;8.52;5.85;;;;;;;29.71;38.75;98679.84;5092428;28;20441;-90
2021/06/28 08:10:33;;;;;;;8.07;6.20;;;;;;;29.80;38.04;98666.03;5091678;28;20040;-88
2021/06/28 08:12:58;;;;;;;8.27;6.00;;;;;;;30.05;37.42;98666.94;5092983;28;20024;-91
2021/06/28 08:15:26;;;;;;;8.52;5.93;;;;;;;30.44;36.30;98660.84;5091284;28;20046;-91
2021/06/28 08:17:54;;;;;;;8.70;6.10;;;;;;;30.52;36.47;98649.00;5092321;28;20103;-89
2021/06/28 08:20:21;;;;;;;12.48;7.03;;;;;;;30.54;36.75;98648.84;5090092;28;20040;-90
2021/06/28 08:22:48;;;;;;;8.27;6.88;;;;;;;30.56;36.50;98633.91;5092169;28;20135;-89
2021/06/28 08:25:15;;;;;;;9.85;6.05;;;;;;;30.62;35.53;98646.97;5092894;28;20094;-88
2021/06/28 08:27:41;;;;;;;10.07;6.30;;;;;;;30.81;34.85;98634.72;5091040;28;20090;-88
2021/06/28 08:30:09;;;;;;;11.02;6.68;;;;;;;30.88;35.74;98665.13;5088594;28;20046;-89
2021/06/28 08:32:36;;;;;;;12.33;6.27;;;;;;;30.96;35.16;98658.78;5088689;28;20071;-89
2021/06/28 08:35:04;;;;;;;9.10;6.00;;;;;;;31.11;35.26;98659.75;5090092;28;20036;-89
2021/06/28 08:37:31;;;;;;;8.57;5.88;;;;;;;31.22;34.26;98653.88;5092288;28;20043;-89
2021/06/28 08:39:56;;;;;;;10.73;6.10;;;;;;;31.37;34.03;98659.50;5090803;28;20067;-90
2021/06/28 08:42:22;;;;;;;11.63;6.05;;;;;;;31.43;33.75;98641.50;5091650;28;20060;-88
2021/06/28 08:44:49;;;;;;;13.15;6.00;;;;;;;30.89;34.36;98623.78;5090527;28;20042;-88
2021/06/28 08:47:15;;;;;;;8.43;6.40;;;;;;;30.72;35.19;98646.75;5093358;28;20043;-89
2021/06/28 08:49:42;;;;;;;8.40;6.15;;;;;;;30.97;34.39;98646.75;5092009;28;20058;-91
2021/06/28 08:52:08;;;;;;;10.00;6.30;;;;;;;31.30;33.85;98653.03;5092060;28;20482;-91
2021/06/28 08:54:34;;;;;;;10.18;6.25;;;;;;;31.42;33.74;98645.22;5092370;28;20099;-91
2021/06/28 08:57:01;;;;;;;9.35;5.97;;;;;;;31.70;33.33;98642.91;5092024;28;20042;-92
2021/06/28 08:59:27;;;;;;;11.63;6.18;;;;;;;31.84;33.12;98646.81;5092790;28;20039;-89
2021/06/28 09:01:53;;;;;;;10.10;5.65;;;;;;;31.94;32.70;98636.41;5090393;28;20044;-91
2021/06/28 09:04:21;;;;;;;9.52;5.72;;;;;;;32.12;31.35;98638.91;5091128;28;20040;-93
2021/06/28 09:06:48;;;;;;;6.50;5.80;;;;;;;32.18;31.87;98648.31;5092990;28;20036;-92
2021/06/28 09:09:16;;;;;;;7.75;5.93;;;;;;;32.33;31.13;98638.22;5093587;28;20040;-90
2021/06/28 09:11:44;;;;;;;11.45;5.90;;;;;;;32.30;30.66;98622.94;5093089;28;20094;-91
2021/06/28 09:14:12;;;;;;;8.50;5.65;;;;;;;32.25;31.25;98641.91;5092698;28;20123;-89
2021/06/28 09:16:40;;;;;;;9.80;5.00;;;;;;;32.34;30.23;98635.28;5087745;28;20741;-91
2021/06/28 09:19:08;;;;;;;10.10;5.35;;;;;;;32.43;30.92;98626.97;5093599;28;20040;-91
2021/06/28 09:21:37;;;;;;;;;;;;;;;32.67;29.62;98626.78;5093643;28;20486;-90
2021/06/28 09:24:08;;;;;;;8.60;5.00;;;;;;;32.83;28.98;98625.75;5093572;28;19916;-89
2021/06/28 09:26:37;;;;;;;9.55;4.85;;;;;;;32.89;27.52;98629.66;5093618;28;20527;-90
2021/06/28 09:29:05;;;;;;;7.15;4.90;;;;;;;32.70;27.96;98623.66;5092206;28;20565;-89
2021/06/28 09:31:49;;;;;;;;;;;;;;;32.32;28.23;98625.50;5087075;28;20036;-88
2021/06/28 09:34:16;;;;;;;9.63;5.00;;;;;;;32.72;28.45;98626.22;5089014;28;19923;-90
2021/06/28 09:36:46;;;;;;;8.50;4.50;;;;;;;33.10;27.78;98621.53;5091798;28;20032;-91
2021/06/28 09:39:18;;;;;;;8.15;4.65;;;;;;;32.93;27.44;98609.81;5091666;28;20036;-90
2021/06/28 09:41:44;;;;;;;7.55;4.43;;;;;;;32.87;27.45;98606.97;5090563;28;20047;-90
2021/06/28 09:44:10;;;;;;;8.93;4.60;;;;;;;33.09;27.67;98602.44;5092329;28;20032;-90
2021/06/28 09:46:37;;;;;;;11.38;5.03;;;;;;;33.15;26.03;98593.41;5090813;28;20044;-90
2021/06/28 09:49:05;;;;;;;6.95;4.53;;;;;;;32.99;25.85;98607.38;5090886;28;20040;-90
2021/06/28 09:51:32;;;;;;;9.57;4.30;;;;;;;33.04;26.45;98614.00;5091822;28;20569;-92
2021/06/28 09:54:15;;;;;;;10.13;5.13;;;;;;;33.26;26.14;98614.13;5089781;28;20520;-90
2021/06/28 09:59:54;;;;;;;9.93;4.10;;;;;;;33.00;25.63;98614.56;5111194;27;20383;-89
2021/06/28 10:09:09;;;;;;;10.98;4.80;;;;;;;33.61;24.59;98595.94;5206045;27;20488;-89
2021/06/28 10:11:45;;;;;;;7.93;4.35;;;;;;;33.87;25.40;98594.53;5194194;27;20038;-90
2021/06/28 10:14:10;;;;;;;6.72;3.65;;;;;;;33.99;24.16;98593.00;5195341;27;20387;-92
2021/06/28 10:16:39;;;;;;;11.55;4.28;;;;;;;34.14;22.95;98595.72;5193305;27;20038;-89
2021/06/28 10:19:07;;;;;;;8.10;4.00;;;;;;;34.26;22.76;98585.84;5192135;27;20038;-87
2021/06/28 10:21:34;;;;;;;8.77;4.00;;;;;;;33.92;23.25;98595.69;5193594;27;20895;-90
2021/06/28 10:24:15;;;;;;;10.18;4.03;;;;;;;34.17;23.25;98595.31;5193308;27;20034;-88
2021/06/28 10:26:48;;;;;;;8.48;3.58;;;;;;;34.34;23.15;98588.47;5192114;27;20067;-87
2021/06/28 10:29:17;;;;;;;8.70;3.85;;;;;;;33.52;22.17;98586.91;5193214;27;20431;-92
2021/06/28 10:31:47;;;;;;;9.23;3.35;;;;;;;33.60;21.23;98599.75;5190654;27;20121;-91
2021/06/28 10:34:14;;;;;;;12.73;4.10;;;;;;;34.03;20.54;98598.94;5191547;27;20037;-90
2021/06/28 10:36:40;;;;;;;9.82;3.72;;;;;;;34.14;21.25;98602.09;5192742;27;20394;-90
2021/06/28 10:39:07;;;;;;;13.95;3.55;;;;;;;34.24;20.82;98596.22;5192695;27;20034;-88
2021/06/28 10:41:38;;;;;;;8.23;3.40;;;;;;;34.26;19.70;98596.03;5192851;27;20072;-89
2021/06/28 10:44:09;;;;;;;24.27;5.68;;;;;;;34.26;19.85;98577.56;5192603;27;20086;-92
2021/06/28 10:46:37;;;;;;;10.25;3.75;;;;;;;34.23;20.10;98585.41;5191267;27;20078;-88
2021/06/28 10:49:05;;;;;;;10.73;3.22;;;;;;;34.42;20.63;98581.97;5193216;27;20034;-91
2021/06/28 10:51:40;;;;;;;10.88;3.42;;;;;;;34.47;21.07;98593.25;5191426;27;20038;-92
2021/06/28 10:54:07;;;;;;;11.40;3.45;;;;;;;34.45;20.52;98578.78;5192639;27;20042;-90
2021/06/28 10:56:44;;;;;;;10.75;3.83;;;;;;;34.43;20.86;98588.34;5193023;27;20129;-90
2021/06/28 10:59:23;;;;;;;14.30;3.75;;;;;;;34.45;21.12;98572.41;5192851;27;20046;-91
2021/06/28 11:01:57;;;;;;;11.82;4.18;;;;;;;34.56;20.98;98580.16;5188187;27;20455;-88
2021/06/28 11:04:25;;;;;;;9.18;3.70;;;;;;;34.72;21.24;98579.03;5191636;27;20042;-89
2021/06/28 11:07:09;;;;;;;11.43;3.58;;;;;;;34.68;20.55;98572.19;5192822;27;20443;-90
2021/06/28 11:09:37;;;;;;;8.95;3.47;;;;;;;34.53;21.18;98575.91;5193394;27;20046;-91
2021/06/28 11:12:05;;;;;;;13.73;3.60;;;;;;;34.42;21.11;98559.88;5193184;27;20403;-90
2021/06/28 11:14:43;;;;;;;10.77;3.30;;;;;;;34.41;20.63;98555.41;5192903;27;20034;-92
2021/06/28 11:17:09;;;;;;;;;;;;;;;34.49;20.87;98563.53;5192803;27;20125;-91
2021/06/28 11:19:59;;;;;;;11.60;3.47;;;;;;;34.49;21.24;98555.25;5183139;27;19919;-92
2021/06/28 11:22:48;;;;;;;11.90;3.53;;;;;;;34.49;21.21;98546.97;5178606;27;20034;-89
2021/06/28 11:25:23;;;;;;;9.95;4.05;;;;;;;34.41;21.74;98551.78;5176830;27;20130;-88
2021/06/28 11:28:19;;;;;;;6.13;3.10;;;;;;;34.56;22.74;98564.44;5178472;27;20522;-89
2021/06/28 11:30:51;;;;;;;9.85;3.75;;;;;;;34.82;22.22;98545.53;5172043;27;20065;-90
2021/06/28 11:33:45;;;;;;;8.43;3.67;;;;;;;34.70;21.35;98532.28;5178061;27;20094;-92
2021/06/28 11:36:33;;;;;;;11.65;3.92;;;;;;;34.18;22.13;98544.59;5174366;27;20042;-92
2021/06/28 11:39:02;;;;;;;15.80;3.95;;;;;;;34.24;22.23;98535.50;5174152;27;20122;-90
2021/06/28 11:41:30;;;;;;;13.52;3.63;;;;;;;34.15;21.55;98537.56;5170311;27;20035;-91
2021/06/28 11:43:57;;;;;;;13.10;4.00;;;;;;;34.52;22.20;98529.16;5174864;27;20030;-90